createdAt,value
2022-10-20T00:01:16.598Z,97234.19
2022-10-20T00:03:44.248Z,97234.06
2022-10-20T00:06:23.251Z,97239.31
2022-10-20T00:08:53.872Z,97228.38
2022-10-20T00:11:24.611Z,97227.19
2022-10-20T00:13:54.918Z,97224.88
2022-10-20T00:16:24.275Z,97227.19
2022-10-20T00:18:54.020Z,97223.34
2022-10-20T00:21:23.813Z,97223.34
2022-10-20T00:23:50.821Z,97221.72
2022-10-20T00:26:18.625Z,97221.38
2022-10-20T00:28:48.488Z,97222.94
2022-10-20T00:31:15.667Z,97209.81
2022-10-20T00:33:42.406Z,97216.16
2022-10-20T00:36:13.315Z,97213.88
2022-10-20T00:38:40.073Z,97207.97
2022-10-20T00:41:07.005Z,97209.94
2022-10-20T00:43:50.477Z,97211.47
2022-10-20T00:46:28.995Z,97209.72
2022-10-20T00:49:03.391Z,97209.59
2022-10-20T00:51:33.071Z,97199.88
2022-10-20T00:54:12.626Z,97196.16
2022-10-20T00:56:42.885Z,97198.00
2022-10-20T00:59:10.061Z,97195.19
2022-10-20T01:01:38.755Z,97182.97
2022-10-20T01:04:05.867Z,97181.63
2022-10-20T01:06:32.473Z,97175.41
2022-10-20T01:08:59.454Z,97175.72
2022-10-20T01:11:33.197Z,97175.72
2022-10-20T01:14:02.324Z,97180.75
2022-10-20T01:16:56.248Z,97184.25
2022-10-20T01:19:47.452Z,97176.94
2022-10-20T01:22:22.769Z,97185.03
2022-10-20T01:24:53.771Z,97168.22
2022-10-20T01:27:35.860Z,97168.75
2022-10-20T01:30:11.061Z,97178.56
2022-10-20T01:33:12.412Z,97172.66
2022-10-20T01:35:57.293Z,97180.84
2022-10-20T01:38:33.526Z,97177.38
2022-10-20T01:41:19.646Z,97169.31
2022-10-20T01:43:51.330Z,97170.94
2022-10-20T01:46:24.090Z,97180.66
2022-10-20T01:48:52.245Z,97162.63
2022-10-20T01:51:18.841Z,97162.19
2022-10-20T01:53:47.779Z,97147.69
2022-10-20T01:56:33.440Z,97163.25
2022-10-20T01:59:11.737Z,97168.28
2022-10-20T02:01:40.966Z,97165.88
2022-10-20T02:04:11.289Z,97154.63
2022-10-20T02:06:50.184Z,97152.25
2022-10-20T02:09:44.723Z,97152.13
2022-10-20T02:12:20.081Z,97142.31
2022-10-20T02:14:50.549Z,97141.00
2022-10-20T02:17:20.047Z,97140.78
2022-10-20T02:19:51.818Z,97145.91
2022-10-20T02:22:20.024Z,97151.56
2022-10-20T02:24:46.641Z,97137.72
2022-10-20T02:27:18.974Z,97145.47
2022-10-20T02:29:51.943Z,97138.16
2022-10-20T02:32:19.639Z,97137.50
2022-10-20T02:34:49.539Z,97125.41
2022-10-20T02:37:18.353Z,97142.31
2022-10-20T02:39:44.925Z,97141.31
2022-10-20T02:42:13.953Z,97145.56
2022-10-20T02:44:43.241Z,97147.44
2022-10-20T02:47:09.760Z,97141.75
2022-10-20T02:49:43.329Z,97148.75
2022-10-20T02:52:13.194Z,97138.25
2022-10-20T02:54:39.850Z,97131.72
2022-10-20T02:57:08.733Z,97130.97
2022-10-20T02:59:37.572Z,97133.91
2022-10-20T03:02:04.587Z,97133.28
2022-10-20T03:04:31.572Z,97126.81
2022-10-20T03:06:58.209Z,97136.75
2022-10-20T03:09:29.513Z,97121.25
2022-10-20T03:11:56.180Z,97128.91
2022-10-20T03:14:22.858Z,97123.97
2022-10-20T03:16:51.651Z,97123.22
2022-10-20T03:19:18.232Z,97123.13
2022-10-20T03:21:44.832Z,97114.94
2022-10-20T03:24:11.370Z,97121.34
2022-10-20T03:26:38.233Z,97136.19
2022-10-20T03:29:07.021Z,97126.94
2022-10-20T03:31:33.741Z,97129.66
2022-10-20T03:34:00.258Z,97119.81
2022-10-20T03:36:29.223Z,97109.47
2022-10-20T03:38:56.118Z,97114.06
2022-10-20T03:41:27.851Z,97122.44
2022-10-20T03:43:54.951Z,97120.50
2022-10-20T03:46:24.518Z,97124.75
2022-10-20T03:48:51.437Z,97132.50
2022-10-20T03:51:18.053Z,97133.81
2022-10-20T03:53:44.596Z,97124.31
2022-10-20T03:56:15.494Z,97121.59
2022-10-20T03:58:44.280Z,97123.66
2022-10-20T04:01:18.377Z,97116.22
2022-10-20T04:03:45.003Z,97114.28
2022-10-20T04:06:18.685Z,97101.72
2022-10-20T04:08:45.292Z,97109.38
2022-10-20T04:11:12.392Z,97107.50
2022-10-20T04:13:42.258Z,97109.38
2022-10-20T04:16:11.398Z,97105.66
2022-10-20T04:18:38.645Z,97107.50
2022-10-20T04:21:05.328Z,97104.13
2022-10-20T04:23:34.346Z,97091.25
2022-10-20T04:26:09.104Z,97113.06
2022-10-20T04:28:35.621Z,97101.28
2022-10-20T04:31:05.469Z,97095.28
2022-10-20T04:33:35.187Z,97094.72
2022-10-20T04:36:04.798Z,97092.25
2022-10-20T04:38:34.739Z,97085.69
2022-10-20T04:41:04.811Z,97088.84
2022-10-20T04:43:32.751Z,97077.50
2022-10-20T04:46:07.169Z,97082.19
2022-10-20T04:48:36.025Z,97090.69
2022-10-20T04:51:08.745Z,97100.84
2022-10-20T04:53:35.345Z,97083.19
2022-10-20T04:56:08.705Z,97078.94
2022-10-20T04:58:35.939Z,97062.88
2022-10-20T05:01:12.556Z,97069.41
2022-10-20T05:03:39.169Z,97068.53
2022-10-20T05:06:19.202Z,97062.41
2022-10-20T05:08:51.788Z,97057.72
2022-10-20T05:11:20.873Z,97068.97
2022-10-20T05:13:49.739Z,97058.72
2022-10-20T05:16:17.648Z,97046.28
2022-10-20T05:18:44.806Z,97044.22
2022-10-20T05:21:15.075Z,97039.38
2022-10-20T05:23:42.756Z,97040.91
2022-10-20T05:26:12.431Z,97039.97
2022-10-20T05:28:39.591Z,97033.59
2022-10-20T05:31:07.770Z,97015.19
2022-10-20T05:33:35.475Z,97024.22
2022-10-20T05:36:15.893Z,97021.47
2022-10-20T05:38:46.743Z,97030.13
2022-10-20T05:41:17.941Z,97032.63
2022-10-20T05:43:53.051Z,97035.03
2022-10-20T05:46:20.005Z,97036.78
2022-10-20T05:48:47.403Z,97038.75
2022-10-20T05:51:19.270Z,97035.69
2022-10-20T05:53:48.452Z,97047.72
2022-10-20T05:56:20.726Z,97054.88
2022-10-20T05:58:51.291Z,97043.66
2022-10-20T06:01:20.659Z,97067.25
2022-10-20T06:03:58.458Z,97076.81
2022-10-20T06:06:27.591Z,97068.22
2022-10-20T06:08:55.636Z,97070.94
2022-10-20T06:11:25.932Z,97073.91
2022-10-20T06:13:54.936Z,97064.53
2022-10-20T06:16:24.318Z,97059.72
2022-10-20T06:18:57.273Z,97043.47
2022-10-20T06:21:27.449Z,97047.72
2022-10-20T06:24:00.773Z,97059.16
2022-10-20T06:26:38.472Z,97060.78
2022-10-20T06:29:08.298Z,97055.00
2022-10-20T06:31:43.010Z,97057.28
2022-10-20T06:34:15.384Z,97060.53
2022-10-20T06:36:42.619Z,97069.81
2022-10-20T06:39:12.672Z,97083.47
2022-10-20T06:41:44.305Z,97074.09
2022-10-20T06:44:13.406Z,97072.88
2022-10-20T06:46:39.936Z,97066.13
2022-10-20T06:49:08.084Z,97068.31
2022-10-20T06:51:35.587Z,97065.34
2022-10-20T06:54:02.419Z,97067.19
2022-10-20T06:56:33.189Z,97074.94
2022-10-20T06:59:03.924Z,97071.00
2022-10-20T07:01:35.577Z,97084.34
2022-10-20T07:04:10.105Z,97078.31
2022-10-20T07:06:41.404Z,97088.81
2022-10-20T07:09:14.116Z,97101.09
2022-10-20T07:11:41.074Z,97110.16
2022-10-20T07:14:07.710Z,97111.06
2022-10-20T07:16:37.462Z,97114.44
2022-10-20T07:19:06.594Z,97122.97
2022-10-20T07:21:36.501Z,97123.06
2022-10-20T07:24:06.663Z,97120.31
2022-10-20T07:26:40.359Z,97124.50
2022-10-20T07:29:09.716Z,97125.50
2022-10-20T07:31:40.823Z,97127.25
2022-10-20T07:34:24.963Z,97124.50
2022-10-20T07:36:55.130Z,97139.59
2022-10-20T07:39:21.824Z,97143.63
2022-10-20T07:41:50.808Z,97140.78
2022-10-20T07:44:20.207Z,97145.34
2022-10-20T07:46:48.893Z,97150.19
2022-10-20T07:52:04.649Z,97169.41
2022-10-20T07:54:36.229Z,97171.22
2022-10-20T07:57:03.054Z,97151.81
2022-10-20T07:59:30.003Z,97148.75
2022-10-20T08:01:59.660Z,97159.56
2022-10-20T08:04:32.065Z,97163.03
2022-10-20T08:07:01.925Z,97179.75
2022-10-20T08:09:28.596Z,97186.31
2022-10-20T08:11:55.988Z,97187.63
2022-10-20T08:14:27.028Z,97186.31
2022-10-20T08:17:08.719Z,97184.59
2022-10-20T08:19:45.856Z,97184.34
2022-10-20T08:22:13.087Z,97185.44
2022-10-20T08:24:44.208Z,97195.06
2022-10-20T08:27:10.926Z,97168.63
2022-10-20T08:29:37.773Z,97165.75
2022-10-20T08:32:05.409Z,97181.59
2022-10-20T08:34:34.061Z,97186.63
2022-10-20T08:37:02.918Z,97195.69
2022-10-20T08:39:29.640Z,97184.22
2022-10-20T08:42:14.717Z,97173.31
2022-10-20T08:44:47.387Z,97168.03
2022-10-20T08:47:30.663Z,97171.53
2022-10-20T08:49:59.981Z,97167.59
2022-10-20T08:52:27.495Z,97168.25
2022-10-20T08:54:56.630Z,97175.00
2022-10-20T08:57:29.052Z,97172.88
2022-10-20T09:00:16.229Z,97173.53
2022-10-20T09:02:42.941Z,97158.78
2022-10-20T09:05:13.960Z,97157.31
2022-10-20T09:07:48.476Z,97153.41
2022-10-20T09:10:26.988Z,97148.91
2022-10-20T09:12:53.906Z,97159.13
2022-10-20T09:15:21.802Z,97169.88
2022-10-20T09:18:00.732Z,97168.63
2022-10-20T09:20:38.656Z,97167.22
2022-10-20T09:23:21.943Z,97164.19
2022-10-20T09:25:53.232Z,97169.19
2022-10-20T09:28:34.995Z,97176.66
2022-10-20T09:31:21.170Z,97181.09
2022-10-20T09:33:47.815Z,97175.66
2022-10-20T09:36:18.068Z,97176.22
2022-10-20T09:38:49.961Z,97182.56
2022-10-20T09:41:16.451Z,97171.28
2022-10-20T09:43:57.189Z,97174.22
2022-10-20T09:46:32.120Z,97175.22
2022-10-20T09:49:00.907Z,97149.97
2022-10-20T09:51:33.165Z,97154.84
2022-10-20T09:54:06.420Z,97151.78
2022-10-20T09:56:38.765Z,97155.00
2022-10-20T09:59:20.855Z,97155.78
2022-10-20T10:01:53.533Z,97179.38
2022-10-20T10:04:38.605Z,97187.19
2022-10-20T10:07:25.047Z,97191.25
2022-10-20T10:09:57.832Z,97192.09
2022-10-20T10:12:29.158Z,97172.13
2022-10-20T10:14:59.446Z,97167.53
2022-10-20T10:17:33.424Z,97145.31
2022-10-20T10:20:06.895Z,97142.94
2022-10-20T10:22:35.314Z,97133.41
2022-10-20T10:25:05.967Z,97095.66
2022-10-20T10:27:35.893Z,97079.88
2022-10-20T10:30:24.179Z,97049.38
2022-10-20T10:32:55.686Z,97040.91
2022-10-20T10:35:45.991Z,97042.13
2022-10-20T10:38:14.318Z,97046.66
2022-10-20T10:40:59.525Z,97071.47
2022-10-20T10:43:29.807Z,97079.97
2022-10-20T10:46:16.945Z,97082.09
2022-10-20T10:48:49.526Z,97072.38
2022-10-20T10:51:20.858Z,97073.44
2022-10-20T10:53:59.921Z,97091.13
2022-10-20T10:56:47.514Z,97104.06
2022-10-20T10:59:40.499Z,97115.97
2022-10-20T11:02:59.277Z,97116.75
2022-10-20T11:05:25.787Z,97121.06
2022-10-20T11:08:13.453Z,97105.06
2022-10-20T11:11:01.172Z,97110.06
2022-10-20T11:13:53.313Z,97113.28
2022-10-20T11:16:41.720Z,97110.06
2022-10-20T11:19:29.603Z,97109.59
2022-10-20T11:22:26.817Z,97100.00
2022-10-20T11:25:14.958Z,97094.97
2022-10-20T11:27:44.479Z,97082.34
2022-10-20T11:30:21.279Z,97072.28
2022-10-20T11:32:56.382Z,97068.59
2022-10-20T11:35:46.899Z,97069.81
2022-10-20T11:38:31.811Z,97065.09
2022-10-20T11:41:08.284Z,97048.16
2022-10-20T11:44:13.666Z,97019.97
2022-10-20T11:46:42.829Z,97003.19
2022-10-20T11:49:12.469Z,96985.63
2022-10-20T11:52:16.260Z,96960.25
2022-10-20T11:55:04.393Z,96939.03
2022-10-20T11:57:57.653Z,96963.06
2022-10-20T12:00:39.925Z,96948.97
2022-10-20T12:03:25.321Z,96953.50
2022-10-20T12:06:27.323Z,97002.06
2022-10-20T12:09:00.958Z,97000.09
2022-10-20T12:11:58.481Z,96995.22
2022-10-20T12:14:33.560Z,96999.97
2022-10-20T12:17:25.107Z,96986.09
2022-10-20T12:19:54.400Z,96991.88
2022-10-20T12:22:26.343Z,96980.63
2022-10-20T12:25:13.097Z,96965.22
2022-10-20T12:27:42.279Z,96933.13
2022-10-20T12:30:39.522Z,96940.31
2022-10-20T12:33:33.839Z,96941.50
2022-10-20T12:36:20.951Z,96939.63
2022-10-20T12:39:13.951Z,96929.97
2022-10-20T12:41:57.398Z,96931.88
2022-10-20T12:44:26.730Z,96928.00
2022-10-20T12:47:07.065Z,96930.94
2022-10-20T12:49:37.510Z,96919.38
2022-10-20T12:52:07.317Z,96917.88
2022-10-20T12:54:46.296Z,96912.41
2022-10-20T12:57:27.158Z,96911.66
2022-10-20T12:59:54.124Z,96901.97
2022-10-20T13:02:26.038Z,96902.13
2022-10-20T13:05:04.573Z,96913.59
2022-10-20T13:07:46.595Z,96921.34
2022-10-20T13:10:31.174Z,96934.16
2022-10-20T13:13:03.884Z,96935.84
2022-10-20T13:15:42.720Z,96924.09
2022-10-20T13:18:19.982Z,96939.63
2022-10-20T13:20:55.443Z,96931.28
2022-10-20T13:23:38.976Z,96950.63
2022-10-20T13:26:21.861Z,96938.44
2022-10-20T13:28:55.723Z,96927.59
2022-10-20T13:31:45.583Z,96927.31
2022-10-20T13:34:30.650Z,96952.66
2022-10-20T13:37:22.759Z,96973.66
2022-10-20T13:40:11.786Z,96974.47
2022-10-20T13:42:51.491Z,96982.28
2022-10-20T13:45:30.440Z,96964.16
2022-10-20T13:48:11.417Z,96956.53
2022-10-20T13:50:45.945Z,96951.97
2022-10-20T13:53:26.593Z,96936.56
2022-10-20T13:56:03.177Z,96923.16
2022-10-20T13:58:29.969Z,96934.59
2022-10-20T14:01:25.592Z,96934.75
2022-10-20T14:03:52.261Z,96924.69
2022-10-20T14:06:46.671Z,96922.19
2022-10-20T14:09:25.170Z,96928.16
2022-10-20T14:12:01.281Z,96936.34
2022-10-20T14:14:30.019Z,96948.97
2022-10-20T14:17:01.064Z,96937.34
2022-10-20T14:19:30.832Z,96920.44
2022-10-20T14:22:23.082Z,96931.41
2022-10-20T14:24:54.690Z,96930.34
2022-10-20T14:27:29.334Z,96948.22
2022-10-20T14:29:59.805Z,96944.94
2022-10-20T14:32:31.104Z,96931.53
2022-10-20T14:35:23.649Z,96940.38
2022-10-20T14:38:04.282Z,96921.47
2022-10-20T14:40:39.284Z,96907.72
2022-10-20T14:43:36.684Z,96916.25
2022-10-20T14:46:04.881Z,96908.19
2022-10-20T14:48:39.120Z,96902.53
2022-10-20T14:51:27.639Z,96899.78
2022-10-20T14:54:17.240Z,96906.09
2022-10-20T14:56:53.487Z,96902.13
2022-10-20T14:59:25.128Z,96891.06
2022-10-20T15:02:20.365Z,96900.19
2022-10-20T15:04:48.938Z,96901.88
2022-10-20T15:07:23.545Z,96926.22
2022-10-20T15:10:04.188Z,96920.59
2022-10-20T15:12:44.408Z,96925.31
2022-10-20T15:15:10.855Z,96925.50
2022-10-20T15:17:41.238Z,96892.88
2022-10-20T15:20:32.789Z,96918.81
2022-10-20T15:23:09.879Z,96888.91
2022-10-20T15:26:09.411Z,96911.63
2022-10-20T15:28:43.228Z,96902.19
2022-10-20T15:31:12.722Z,96899.16
2022-10-20T15:33:44.567Z,96915.19
2022-10-20T15:36:21.277Z,96888.84
2022-10-20T15:38:53.119Z,96921.25
2022-10-20T15:41:22.401Z,96904.06
2022-10-20T15:43:49.202Z,96920.38
2022-10-20T15:46:16.730Z,96897.41
2022-10-20T15:48:45.908Z,96889.34
2022-10-20T15:51:36.441Z,96890.28
2022-10-20T15:54:05.892Z,96894.25
2022-10-20T15:56:35.487Z,96892.09
2022-10-20T15:59:02.453Z,96879.19
2022-10-20T16:01:29.314Z,96879.03
2022-10-20T16:03:55.935Z,96875.81
2022-10-20T16:06:25.341Z,96874.75
2022-10-20T16:08:51.974Z,96874.94
2022-10-20T16:11:21.866Z,96874.94
2022-10-20T16:13:49.169Z,96884.81
2022-10-20T16:16:18.391Z,96875.97
2022-10-20T16:18:48.727Z,96871.13
2022-10-20T16:21:20.080Z,96880.84
2022-10-20T16:23:47.483Z,96873.19
2022-10-20T16:26:15.144Z,96863.47
2022-10-20T16:28:44.599Z,96870.16
2022-10-20T16:31:14.137Z,96887.78
2022-10-20T16:33:42.892Z,96890.81
2022-10-20T16:36:16.278Z,96895.53
2022-10-20T16:38:45.254Z,96914.22
2022-10-20T16:41:14.458Z,96906.91
2022-10-20T16:43:43.508Z,96896.16
2022-10-20T16:46:11.487Z,96886.09
2022-10-20T16:48:45.229Z,96885.19
2022-10-20T16:51:15.569Z,96885.66
2022-10-20T16:53:47.043Z,96881.25
2022-10-20T16:56:16.681Z,96861.34
2022-10-20T16:58:48.688Z,96874.09
2022-10-20T17:01:21.737Z,96869.78
2022-10-20T17:03:51.581Z,96876.31
2022-10-20T17:06:23.097Z,96886.19
2022-10-20T17:08:52.821Z,96883.00
2022-10-20T17:11:25.674Z,96885.31
2022-10-20T17:13:52.677Z,96898.09
2022-10-20T17:16:27.737Z,96915.53
2022-10-20T17:18:56.836Z,96958.84
2022-10-20T17:21:23.368Z,96980.56
2022-10-20T17:23:50.077Z,96973.88
2022-10-20T17:26:28.396Z,96943.31
2022-10-20T17:28:59.914Z,96921.91
2022-10-20T17:31:27.002Z,96912.47
2022-10-20T17:33:56.427Z,96908.34
2022-10-20T17:36:26.249Z,96883.00
2022-10-20T17:38:56.330Z,96895.25
2022-10-20T17:41:26.558Z,96905.75
2022-10-20T17:43:55.583Z,96913.19
2022-10-20T17:46:22.170Z,96921.56
2022-10-20T17:48:50.960Z,96926.53
2022-10-20T17:51:23.159Z,96933.34
2022-10-20T17:53:56.813Z,96932.03
2022-10-20T17:56:31.377Z,96934.59
2022-10-20T17:59:07.503Z,96957.84
2022-10-20T18:01:39.718Z,96953.97
2022-10-20T18:04:09.950Z,96941.78
2022-10-20T18:06:37.121Z,96932.97
2022-10-20T18:09:10.961Z,96932.97
2022-10-20T18:11:45.494Z,96929.50
2022-10-20T18:14:12.244Z,96922.63
2022-10-20T18:16:42.539Z,96911.44
2022-10-20T18:19:14.785Z,96913.72
2022-10-20T18:21:41.732Z,96909.00
2022-10-20T18:24:15.203Z,96907.50
2022-10-20T18:26:42.733Z,96894.59
2022-10-20T18:29:10.467Z,96887.13
2022-10-20T18:31:41.875Z,96886.97
2022-10-20T18:34:13.128Z,96874.19
2022-10-20T18:36:45.852Z,96891.69
2022-10-20T18:39:13.630Z,96902.28
2022-10-20T18:41:43.073Z,96889.66
2022-10-20T18:44:15.450Z,96881.34
2022-10-20T18:46:46.304Z,96876.94
2022-10-20T18:49:19.843Z,96859.47
2022-10-20T18:51:49.952Z,96859.63
2022-10-20T18:54:17.745Z,96860.06
2022-10-20T18:56:44.660Z,96880.66
2022-10-20T18:59:16.219Z,96896.28
2022-10-20T19:01:43.672Z,96902.03
2022-10-20T19:04:11.654Z,96900.34
2022-10-20T19:06:48.136Z,96890.59
2022-10-20T19:09:18.425Z,96898.25
2022-10-20T19:14:20.710Z,96887.25
2022-10-20T19:16:51.825Z,96905.59
2022-10-20T19:19:18.393Z,96888.00
2022-10-20T19:21:47.690Z,96901.75
2022-10-20T19:24:22.657Z,96895.44
2022-10-20T19:27:24.576Z,96897.84
2022-10-20T19:29:44.560Z,96881.34
2022-10-20T19:32:12.154Z,96875.56
2022-10-20T19:34:43.180Z,96866.59
2022-10-20T19:37:15.023Z,96857.41
2022-10-20T19:39:44.783Z,96854.41
2022-10-20T19:42:11.818Z,96847.28
2022-10-20T19:44:38.532Z,96857.91
2022-10-20T19:47:08.528Z,96866.91
2022-10-20T19:49:35.697Z,96872.22
2022-10-20T19:52:05.823Z,96874.94
2022-10-20T19:54:35.598Z,96876.81
2022-10-20T19:57:04.380Z,96868.72
2022-10-20T19:59:31.074Z,96880.41
2022-10-20T20:02:00.229Z,96864.94
2022-10-20T20:04:27.201Z,96855.09
2022-10-20T20:06:57.255Z,96849.50
2022-10-20T20:09:29.992Z,96852.06
2022-10-20T20:11:56.723Z,96854.53
2022-10-20T20:14:23.267Z,96847.88
2022-10-20T20:16:49.899Z,96853.88
2022-10-20T20:19:17.462Z,96841.91
2022-10-20T20:21:44.541Z,96842.97
2022-10-20T20:24:14.310Z,96840.31
2022-10-20T20:26:40.936Z,96841.69
2022-10-20T20:29:07.459Z,96841.81
2022-10-20T20:31:34.235Z,96837.06
2022-10-20T20:34:00.894Z,96817.59
2022-10-20T20:36:30.518Z,96862.06
2022-10-20T20:39:00.366Z,96845.06
2022-10-20T20:41:31.793Z,96869.81
2022-10-20T20:43:58.501Z,96874.63
2022-10-20T20:46:29.206Z,96846.13
2022-10-20T20:48:58.399Z,96870.16
2022-10-20T20:51:33.527Z,96875.06
2022-10-20T20:54:01.354Z,96854.91
2022-10-20T20:56:30.315Z,96869.38
2022-10-20T20:58:56.900Z,96862.53
2022-10-20T21:01:31.673Z,96853.75
2022-10-20T21:04:03.079Z,96861.19
2022-10-20T21:06:49.360Z,96852.81
2022-10-20T21:09:23.871Z,96858.97
2022-10-20T21:11:50.480Z,96851.72
2022-10-20T21:14:17.262Z,96844.31
2022-10-20T21:16:44.175Z,96846.00
2022-10-20T21:19:13.261Z,96844.84
2022-10-20T21:21:50.274Z,96841.25
2022-10-20T21:24:19.346Z,96829.19
2022-10-20T21:26:50.644Z,96820.56
2022-10-20T21:29:22.537Z,96823.81
2022-10-20T21:31:55.475Z,96827.00
2022-10-20T21:34:22.060Z,96835.47
2022-10-20T21:36:48.971Z,96833.84
2022-10-20T21:39:20.099Z,96832.06
2022-10-20T21:41:48.608Z,96835.88
2022-10-20T21:44:15.249Z,96832.69
2022-10-20T21:46:49.245Z,96820.25
2022-10-20T21:49:21.135Z,96830.72
2022-10-20T21:51:53.648Z,96836.94
2022-10-20T21:54:24.760Z,96850.47
2022-10-20T21:56:52.202Z,96841.47
2022-10-20T21:59:24.720Z,96843.22
2022-10-20T22:01:56.020Z,96847.34
2022-10-20T22:04:27.987Z,96839.94
2022-10-20T22:06:54.907Z,96837.50
2022-10-20T22:09:24.851Z,96853.88
2022-10-20T22:11:56.734Z,96825.69
2022-10-20T22:14:23.715Z,96827.63
2022-10-20T22:16:53.109Z,96839.63
2022-10-20T22:19:23.894Z,96813.59
2022-10-20T22:21:54.109Z,96834.72
2022-10-20T22:24:21.731Z,96826.84
2022-10-20T22:26:54.023Z,96805.41
2022-10-20T22:29:22.141Z,96846.72
2022-10-20T22:31:49.564Z,96826.78
2022-10-20T22:34:16.367Z,96836.06
2022-10-20T22:36:44.434Z,96847.91
2022-10-20T22:39:15.790Z,96833.75
2022-10-20T22:41:47.069Z,96834.72
2022-10-20T22:44:13.657Z,96834.41
2022-10-20T22:46:40.218Z,96806.38
2022-10-20T22:49:06.965Z,96820.63
2022-10-20T22:51:33.913Z,96825.22
2022-10-20T22:54:03.387Z,96823.88
2022-10-20T22:56:29.971Z,96817.97
2022-10-20T22:58:56.641Z,96830.72
2022-10-20T23:01:25.952Z,96823.44
2022-10-20T23:03:52.667Z,96821.34
2022-10-20T23:06:22.629Z,96834.88
2022-10-20T23:08:53.413Z,96841.38
2022-10-20T23:11:20.743Z,96841.72
2022-10-20T23:13:50.936Z,96844.44
2022-10-20T23:16:18.589Z,96846.06
2022-10-20T23:18:47.367Z,96855.03
2022-10-20T23:21:14.398Z,96852.63
2022-10-20T23:23:43.030Z,96854.16
2022-10-20T23:26:13.191Z,96835.31
2022-10-20T23:28:43.302Z,96841.09
2022-10-20T23:31:11.632Z,96843.56
2022-10-20T23:33:40.152Z,96847.38
2022-10-20T23:36:07.401Z,96833.41
2022-10-20T23:38:36.700Z,96835.53
2022-10-20T23:41:04.003Z,96847.22
2022-10-20T23:43:31.061Z,96847.88
2022-10-20T23:45:59.960Z,96855.63
2022-10-20T23:48:29.292Z,96840.44
2022-10-20T23:50:58.863Z,96827.50
2022-10-20T23:53:25.780Z,96828.75
2022-10-20T23:55:52.605Z,96829.19
2022-10-20T23:58:22.749Z,96827.69
